createdAt,value
2023-04-02T00:00:47.670Z,51.212234
2023-04-02T00:01:48.705Z,51.212318
2023-04-02T00:02:47.698Z,51.212124
2023-04-02T00:03:47.785Z,51.211906
2023-04-02T00:04:47.629Z,51.212185
2023-04-02T00:05:47.597Z,51.212074
2023-04-02T00:06:48.622Z,51.211895
2023-04-02T00:07:47.642Z,51.212063
2023-04-02T00:08:47.590Z,51.211952
2023-04-02T00:09:47.606Z,51.211895
2023-04-02T00:10:47.611Z,51.212017
2023-04-02T00:11:47.589Z,51.211872
2023-04-02T00:12:47.576Z,51.211903
2023-04-02T00:13:47.557Z,51.211975
2023-04-02T00:14:47.559Z,51.212029
2023-04-02T00:15:47.581Z,51.212013
2023-04-02T00:16:47.674Z,51.211914
2023-04-02T00:17:47.570Z,51.211735
2023-04-02T00:18:47.592Z,51.211945
2023-04-02T00:19:47.533Z,51.211945
2023-04-02T00:20:47.535Z,51.212002
2023-04-02T00:21:47.528Z,51.212162
2023-04-02T00:22:47.549Z,51.212151
2023-04-02T00:23:47.505Z,51.212181
2023-04-02T00:24:47.489Z,51.212181
2023-04-02T00:25:47.483Z,51.212261
2023-04-02T00:26:47.471Z,51.212219
2023-04-02T00:27:47.499Z,51.212223
2023-04-02T00:28:47.474Z,51.212158
2023-04-02T00:29:47.448Z,51.212200
2023-04-02T00:30:47.447Z,51.212189
2023-04-02T00:31:47.509Z,51.212139
2023-04-02T00:32:47.456Z,51.212135
2023-04-02T00:33:47.439Z,51.212227
2023-04-02T00:34:47.434Z,51.212212
2023-04-02T00:35:47.422Z,51.212044
2023-04-02T00:36:47.463Z,51.212051
2023-04-02T00:37:47.410Z,51.212124
2023-04-02T00:38:48.719Z,51.212204
2023-04-02T00:39:52.448Z,51.212223
2023-04-02T00:40:47.404Z,51.212112
2023-04-02T00:41:47.387Z,51.212097
2023-04-02T00:42:47.409Z,51.212135
2023-04-02T00:43:47.387Z,51.212219
2023-04-02T00:44:47.361Z,51.212143
2023-04-02T00:45:47.387Z,51.212120
2023-04-02T00:46:47.513Z,51.212109
2023-04-02T00:47:47.372Z,51.212135
2023-04-02T00:48:47.344Z,51.212177
2023-04-02T00:49:47.327Z,51.212368
2023-04-02T00:50:47.390Z,51.212093
2023-04-02T00:51:47.324Z,51.212124
2023-04-02T00:52:47.312Z,51.212101
2023-04-02T00:53:47.304Z,51.212059
2023-04-02T00:54:47.292Z,51.212067
2023-04-02T00:55:47.317Z,51.212105
2023-04-02T00:56:47.382Z,51.212143
2023-04-02T00:57:47.289Z,51.211971
2023-04-02T00:58:47.261Z,51.211903
2023-04-02T00:59:47.261Z,51.211956
2023-04-02T01:00:47.281Z,51.211971
2023-04-02T01:01:47.305Z,51.211960
2023-04-02T01:02:47.392Z,51.212074
2023-04-02T01:03:47.253Z,51.212044
2023-04-02T01:04:47.230Z,51.212063
2023-04-02T01:05:47.246Z,51.212025
2023-04-02T01:06:47.242Z,51.212078
2023-04-02T01:07:47.218Z,51.212101
2023-04-02T01:08:47.193Z,51.212154
2023-04-02T01:09:47.202Z,51.212154
2023-04-02T01:10:47.209Z,51.212120
2023-04-02T01:11:47.201Z,51.212086
2023-04-02T01:12:47.208Z,51.212162
2023-04-02T01:13:47.172Z,51.212227
2023-04-02T01:14:48.248Z,51.212021
2023-04-02T01:15:47.215Z,51.211952
2023-04-02T01:16:47.196Z,51.211987
2023-04-02T01:17:47.159Z,51.212116
2023-04-02T01:18:47.145Z,51.212162
2023-04-02T01:19:47.160Z,51.212128
2023-04-02T01:20:47.134Z,51.212132
2023-04-02T01:21:47.126Z,51.212212
2023-04-02T01:22:47.173Z,51.212147
2023-04-02T01:23:47.959Z,51.212078
2023-04-02T01:24:48.107Z,51.212124
2023-04-02T01:25:47.095Z,51.211979
2023-04-02T01:26:47.102Z,51.212025
2023-04-02T01:27:47.082Z,51.212090
2023-04-02T01:28:47.079Z,51.212139
2023-04-02T01:29:47.069Z,51.212181
2023-04-02T01:30:48.067Z,51.212208
2023-04-02T01:31:47.084Z,51.212170
2023-04-02T01:32:47.111Z,51.212086
2023-04-02T01:33:47.098Z,51.212051
2023-04-02T01:34:47.053Z,51.212116
2023-04-02T01:35:47.063Z,51.211990
2023-04-02T01:36:47.049Z,51.211929
2023-04-02T01:37:47.031Z,51.211937
2023-04-02T01:38:47.006Z,51.211945
2023-04-02T01:39:47.010Z,51.211899
2023-04-02T01:40:46.996Z,51.211948
2023-04-02T01:41:47.030Z,51.211758
2023-04-02T01:42:46.997Z,51.211838
2023-04-02T01:43:46.993Z,51.211952
2023-04-02T01:44:46.974Z,51.211884
2023-04-02T01:45:46.979Z,51.211929
2023-04-02T01:46:47.045Z,51.211887
2023-04-02T01:47:46.967Z,51.211918
2023-04-02T01:48:46.983Z,51.211842
2023-04-02T01:49:46.949Z,51.211864
2023-04-02T01:50:46.944Z,51.211922
2023-04-02T01:51:46.939Z,51.211796
2023-04-02T01:52:46.940Z,51.211857
2023-04-02T01:53:46.977Z,51.211983
2023-04-02T01:54:46.921Z,51.212059
2023-04-02T01:55:46.935Z,51.212074
2023-04-02T01:56:46.997Z,51.212013
2023-04-02T01:57:46.904Z,51.211990
2023-04-02T01:58:46.901Z,51.212006
2023-04-02T01:59:46.918Z,51.212112
2023-04-02T02:00:46.967Z,51.212109
2023-04-02T02:01:46.896Z,51.212193
2023-04-02T02:02:46.966Z,51.212238
2023-04-02T02:03:46.870Z,51.212101
2023-04-02T02:04:46.881Z,51.212234
2023-04-02T02:05:46.862Z,51.212208
2023-04-02T02:06:46.866Z,51.212303
2023-04-02T02:07:46.853Z,51.212360
2023-04-02T02:08:46.900Z,51.212284
2023-04-02T02:09:46.876Z,51.212227
2023-04-02T02:10:46.829Z,51.212284
2023-04-02T02:11:46.845Z,51.212303
2023-04-02T02:12:46.830Z,51.212181
2023-04-02T02:13:46.811Z,51.212261
2023-04-02T02:14:46.799Z,51.212383
2023-04-02T02:15:46.790Z,51.212254
2023-04-02T02:16:46.915Z,51.212116
2023-04-02T02:17:46.819Z,51.212193
2023-04-02T02:18:46.778Z,51.212238
2023-04-02T02:19:47.807Z,51.212059
2023-04-02T02:20:46.777Z,51.212032
2023-04-02T02:21:46.754Z,51.212177
2023-04-02T02:22:46.777Z,51.212040
2023-04-02T02:23:46.782Z,51.212055
2023-04-02T02:24:47.204Z,51.212101
2023-04-02T02:25:46.737Z,51.212166
2023-04-02T02:26:46.734Z,51.212151
2023-04-02T02:27:46.736Z,51.212151
2023-04-02T02:28:46.735Z,51.212177
2023-04-02T02:29:46.740Z,51.212070
2023-04-02T02:30:46.745Z,51.212112
2023-04-02T02:31:46.868Z,51.212082
2023-04-02T02:32:46.705Z,51.212086
2023-04-02T02:33:46.705Z,51.212234
2023-04-02T02:34:46.704Z,51.212193
2023-04-02T02:35:46.717Z,51.212128
2023-04-02T02:36:46.683Z,51.212219
2023-04-02T02:37:46.685Z,51.212227
2023-04-02T02:38:46.686Z,51.212154
2023-04-02T02:39:46.663Z,51.212162
2023-04-02T02:40:46.713Z,51.212109
2023-04-02T02:41:46.664Z,51.212086
2023-04-02T02:42:46.655Z,51.212082
2023-04-02T02:43:47.652Z,51.212002
2023-04-02T02:44:46.662Z,51.212097
2023-04-02T02:45:46.730Z,51.212158
2023-04-02T02:46:46.636Z,51.212063
2023-04-02T02:47:46.631Z,51.211887
2023-04-02T02:48:46.615Z,51.212048
2023-04-02T02:49:46.601Z,51.212093
2023-04-02T02:50:46.619Z,51.211994
2023-04-02T02:51:46.614Z,51.212029
2023-04-02T02:52:47.604Z,51.212013
2023-04-02T02:53:46.576Z,51.212177
2023-04-02T02:54:46.591Z,51.212204
2023-04-02T02:55:46.604Z,51.212055
2023-04-02T02:56:46.611Z,51.212086
2023-04-02T02:57:46.574Z,51.211983
2023-04-02T02:58:46.551Z,51.212067
2023-04-02T02:59:46.566Z,51.211945
2023-04-02T03:00:46.561Z,51.211895
2023-04-02T03:01:46.572Z,51.212021
2023-04-02T03:02:46.626Z,51.211967
2023-04-02T03:03:46.738Z,51.211964
2023-04-02T03:04:46.514Z,51.211899
2023-04-02T03:05:46.526Z,51.211899
2023-04-02T03:06:46.519Z,51.211960
2023-04-02T03:07:46.517Z,51.211971
2023-04-02T03:08:46.490Z,51.212105
2023-04-02T03:09:46.495Z,51.212025
2023-04-02T03:10:46.486Z,51.212009
2023-04-02T03:11:46.499Z,51.212040
2023-04-02T03:12:46.500Z,51.212132
2023-04-02T03:13:46.659Z,51.212124
2023-04-02T03:14:46.470Z,51.212086
2023-04-02T03:15:46.483Z,51.212093
2023-04-02T03:16:46.457Z,51.212055
2023-04-02T03:17:46.532Z,51.212166
2023-04-02T03:18:46.464Z,51.212101
2023-04-02T03:19:46.438Z,51.212132
2023-04-02T03:20:46.467Z,51.212074
2023-04-02T03:21:46.415Z,51.212143
2023-04-02T03:22:46.444Z,51.212097
2023-04-02T03:23:46.441Z,51.211937
2023-04-02T03:24:46.424Z,51.211971
2023-04-02T03:25:46.413Z,51.211933
2023-04-02T03:26:46.423Z,51.212074
2023-04-02T03:27:46.409Z,51.211880
2023-04-02T03:28:46.379Z,51.211971
2023-04-02T03:29:46.375Z,51.212036
2023-04-02T03:30:46.391Z,51.212074
2023-04-02T03:31:46.506Z,51.212090
2023-04-02T03:32:46.421Z,51.212097
2023-04-02T03:33:46.405Z,51.211857
2023-04-02T03:34:46.391Z,51.212090
2023-04-02T03:35:49.998Z,51.212135
2023-04-02T03:36:50.252Z,51.212147
2023-04-02T03:37:49.540Z,51.212078
2023-04-02T03:38:47.574Z,51.212074
2023-04-02T03:39:49.844Z,51.212048
2023-04-02T03:40:50.178Z,51.212078
2023-04-02T03:41:50.462Z,51.211960
2023-04-02T03:42:49.999Z,51.212051
2023-04-02T03:43:50.520Z,51.212109
2023-04-02T03:44:48.255Z,51.212139
2023-04-02T03:45:52.198Z,51.212109
2023-04-02T03:46:48.637Z,51.211987
2023-04-02T03:47:50.058Z,51.212021
2023-04-02T03:48:48.495Z,51.212044
2023-04-02T03:49:48.709Z,51.212032
2023-04-02T03:50:52.249Z,51.212132
2023-04-02T03:51:48.284Z,51.212093
2023-04-02T03:52:49.439Z,51.212036
2023-04-02T03:53:51.235Z,51.212078
2023-04-02T03:54:53.812Z,51.212009
2023-04-02T03:55:50.098Z,51.211948
2023-04-02T03:56:50.608Z,51.211597
2023-04-02T03:57:47.038Z,51.211658
2023-04-02T03:58:48.984Z,51.211708
2023-04-02T03:59:50.247Z,51.212025
2023-04-02T04:00:48.321Z,51.211990
2023-04-02T04:01:48.664Z,51.211884
2023-04-02T04:02:51.060Z,51.211876
2023-04-02T04:03:48.507Z,51.211903
2023-04-02T04:04:51.530Z,51.211903
2023-04-02T04:05:47.576Z,51.211941
2023-04-02T04:06:50.491Z,51.212078
2023-04-02T04:07:47.286Z,51.211971
2023-04-02T04:08:49.556Z,51.211567
2023-04-02T04:09:48.272Z,51.212204
2023-04-02T04:10:50.559Z,51.212219
2023-04-02T04:11:47.833Z,51.212193
2023-04-02T04:12:48.722Z,51.212173
2023-04-02T04:13:47.742Z,51.212162
2023-04-02T04:14:48.512Z,51.212196
2023-04-02T04:15:48.106Z,51.212097
2023-04-02T04:16:48.414Z,51.212212
2023-04-02T04:17:48.499Z,51.212227
2023-04-02T04:18:47.244Z,51.212177
2023-04-02T04:19:47.576Z,51.212112
2023-04-02T04:20:48.704Z,51.212097
2023-04-02T04:21:50.911Z,51.212132
2023-04-02T04:22:49.247Z,51.212200
2023-04-02T04:23:49.120Z,51.212193
2023-04-02T04:24:47.966Z,51.212166
2023-04-02T04:25:48.670Z,51.212193
2023-04-02T04:26:50.414Z,51.212154
2023-04-02T04:27:48.771Z,51.212147
2023-04-02T04:28:48.913Z,51.212181
2023-04-02T04:29:49.160Z,51.212101
2023-04-02T04:30:48.493Z,51.212139
2023-04-02T04:31:47.870Z,51.212132
2023-04-02T04:32:47.276Z,51.212032
2023-04-02T04:33:50.052Z,51.211842
2023-04-02T04:34:46.667Z,51.211887
2023-04-02T04:35:49.165Z,51.212074
2023-04-02T04:36:54.032Z,51.212151
2023-04-02T04:37:47.215Z,51.212132
2023-04-02T04:38:57.212Z,51.212212
2023-04-02T04:39:48.965Z,51.212147
2023-04-02T04:40:48.319Z,51.212093
2023-04-02T04:41:46.997Z,51.212036
2023-04-02T04:42:51.503Z,51.211926
2023-04-02T04:43:48.917Z,51.211922
2023-04-02T04:44:47.482Z,51.212017
2023-04-02T04:45:47.047Z,51.212002
2023-04-02T04:46:47.996Z,51.212013
2023-04-02T04:47:47.274Z,51.212006
2023-04-02T04:48:48.481Z,51.212101
2023-04-02T04:49:48.703Z,51.211891
2023-04-02T04:50:49.483Z,51.211899
2023-04-02T04:51:48.282Z,51.212040
2023-04-02T04:52:46.363Z,51.212048
2023-04-02T04:53:47.334Z,51.212074
2023-04-02T04:54:49.193Z,51.212135
2023-04-02T04:55:47.016Z,51.212185
2023-04-02T04:56:48.627Z,51.212208
2023-04-02T04:57:48.106Z,51.212162
2023-04-02T04:58:47.098Z,51.212070
2023-04-02T04:59:51.526Z,51.211952
2023-04-02T05:00:46.170Z,51.212059
2023-04-02T05:01:48.848Z,51.212051
2023-04-02T05:02:49.033Z,51.212151
2023-04-02T05:03:48.989Z,51.212280
2023-04-02T05:04:53.128Z,51.212193
2023-04-02T05:05:48.131Z,51.212162
2023-04-02T05:06:48.596Z,51.212135
2023-04-02T05:07:48.752Z,51.212132
2023-04-02T05:08:48.707Z,51.212101
2023-04-02T05:09:48.338Z,51.212070
2023-04-02T05:10:46.623Z,51.212166
2023-04-02T05:11:49.373Z,51.212212
2023-04-02T05:12:48.215Z,51.212132
2023-04-02T05:13:48.779Z,51.212059
2023-04-02T05:15:05.210Z,51.212093
2023-04-02T05:15:47.721Z,51.211983
2023-04-02T05:16:46.757Z,51.212017
2023-04-02T05:17:46.944Z,51.212059
2023-04-02T05:18:47.541Z,51.212059
2023-04-02T05:19:48.488Z,51.212063
2023-04-02T05:20:48.081Z,51.212181
2023-04-02T05:21:49.212Z,51.212006
2023-04-02T05:22:47.601Z,51.212040
2023-04-02T05:23:48.808Z,51.212132
2023-04-02T05:24:48.649Z,51.212257
2023-04-02T05:25:48.852Z,51.212242
2023-04-02T05:26:48.141Z,51.212311
2023-04-02T05:27:47.554Z,51.212128
2023-04-02T05:28:46.879Z,51.212143
2023-04-02T05:29:48.015Z,51.212154
2023-04-02T05:30:49.061Z,51.211937
2023-04-02T05:31:47.782Z,51.211872
2023-04-02T05:32:46.077Z,51.212059
2023-04-02T05:33:47.528Z,51.212143
2023-04-02T05:34:47.116Z,51.212173
2023-04-02T05:35:47.281Z,51.212257
2023-04-02T05:36:48.358Z,51.212181
2023-04-02T05:37:48.177Z,51.212135
2023-04-02T05:38:46.134Z,51.212173
2023-04-02T05:39:47.240Z,51.212246
2023-04-02T05:40:49.048Z,51.212227
2023-04-02T05:41:45.657Z,51.212120
2023-04-02T05:42:45.633Z,51.212276
2023-04-02T05:43:45.621Z,51.212166
2023-04-02T05:44:45.629Z,51.212086
2023-04-02T05:45:45.600Z,51.212196
2023-04-02T05:46:45.673Z,51.212128
2023-04-02T05:47:45.648Z,51.212166
2023-04-02T05:48:45.608Z,51.212212
2023-04-02T05:49:45.571Z,51.211952
2023-04-02T05:50:45.585Z,51.212189
2023-04-02T05:51:45.565Z,51.212311
2023-04-02T05:52:45.565Z,51.212116
2023-04-02T05:53:45.556Z,51.211964
2023-04-02T05:54:46.590Z,51.211838
2023-04-02T05:55:45.548Z,51.211670
2023-04-02T05:56:45.565Z,51.211922
2023-04-02T05:57:54.894Z,51.212261
2023-04-02T05:58:47.616Z,51.212273
2023-04-02T05:59:45.553Z,51.212009
2023-04-02T06:00:45.504Z,51.212234
2023-04-02T06:01:45.590Z,51.212101
2023-04-02T06:02:45.517Z,51.212296
2023-04-02T06:03:45.592Z,51.212261
2023-04-02T06:04:45.493Z,51.212147
2023-04-02T06:05:45.510Z,51.212120
2023-04-02T06:06:45.548Z,51.212315
2023-04-02T06:07:45.511Z,51.212105
2023-04-02T06:08:45.470Z,51.212177
2023-04-02T06:09:45.505Z,51.212231
2023-04-02T06:10:45.492Z,51.212101
2023-04-02T06:11:45.483Z,51.212166
2023-04-02T06:12:45.442Z,51.212246
2023-04-02T06:13:45.446Z,51.212124
2023-04-02T06:14:45.447Z,51.212139
2023-04-02T06:15:47.242Z,51.212090
2023-04-02T06:16:45.490Z,51.212330
2023-04-02T06:17:45.447Z,51.212311
2023-04-02T06:18:45.424Z,51.212280
2023-04-02T06:19:45.410Z,51.212189
2023-04-02T06:20:45.475Z,51.212196
2023-04-02T06:21:45.415Z,51.212341
2023-04-02T06:22:45.406Z,51.212227
2023-04-02T06:23:45.423Z,51.212070
2023-04-02T06:24:45.399Z,51.212040
2023-04-02T06:25:45.529Z,51.212250
2023-04-02T06:26:45.388Z,51.212231
2023-04-02T06:27:45.366Z,51.212177
2023-04-02T06:28:45.363Z,51.212177
2023-04-02T06:29:45.428Z,51.212234
2023-04-02T06:30:45.368Z,51.212234
2023-04-02T06:31:45.675Z,51.212246
2023-04-02T06:32:45.390Z,51.212257
2023-04-02T06:33:45.332Z,51.212189
2023-04-02T06:34:45.316Z,51.212177
2023-04-02T06:35:45.339Z,51.212200
2023-04-02T06:36:45.321Z,51.212227
2023-04-02T06:37:45.314Z,51.212215
2023-04-02T06:38:45.311Z,51.212193
2023-04-02T06:39:45.317Z,51.212196
2023-04-02T06:40:45.309Z,51.212215
2023-04-02T06:41:45.299Z,51.212193
2023-04-02T06:42:45.274Z,51.212254
2023-04-02T06:43:45.258Z,51.212078
2023-04-02T06:44:45.278Z,51.212120
2023-04-02T06:45:45.285Z,51.212158
2023-04-02T06:46:45.273Z,51.212212
2023-04-02T06:47:45.316Z,51.212257
2023-04-02T06:48:45.235Z,51.212234
2023-04-02T06:49:45.226Z,51.212200
2023-04-02T06:50:45.268Z,51.212147
2023-04-02T06:51:45.236Z,51.212124
2023-04-02T06:52:45.216Z,51.212120
2023-04-02T06:53:45.208Z,51.212128
2023-04-02T06:54:45.237Z,51.212170
2023-04-02T06:55:45.203Z,51.212181
2023-04-02T06:56:45.214Z,51.212242
2023-04-02T06:57:45.186Z,51.212234
2023-04-02T06:58:45.183Z,51.212185
2023-04-02T06:59:45.213Z,51.212234
2023-04-02T07:00:46.184Z,51.212231
2023-04-02T07:01:45.229Z,51.212177
2023-04-02T07:02:45.254Z,51.212212
2023-04-02T07:03:45.138Z,51.212166
2023-04-02T07:04:45.223Z,51.212151
2023-04-02T07:05:45.135Z,51.212143
2023-04-02T07:06:45.132Z,51.212048
2023-04-02T07:07:45.113Z,51.211987
2023-04-02T07:08:45.110Z,51.212067
2023-04-02T07:09:45.105Z,51.212173
2023-04-02T07:10:45.131Z,51.212151
2023-04-02T07:11:45.100Z,51.212215
2023-04-02T07:12:45.091Z,51.212193
2023-04-02T07:13:45.077Z,51.212177
2023-04-02T07:14:45.104Z,51.212135
2023-04-02T07:15:45.094Z,51.212162
2023-04-02T07:16:45.098Z,51.212132
2023-04-02T07:17:45.097Z,51.212185
2023-04-02T07:18:45.094Z,51.212090
2023-04-02T07:19:45.118Z,51.212151
2023-04-02T07:20:45.044Z,51.212074
2023-04-02T07:21:45.049Z,51.212135
2023-04-02T07:22:45.063Z,51.212196
2023-04-02T07:23:45.043Z,51.212208
2023-04-02T07:24:45.016Z,51.212154
2023-04-02T07:25:45.021Z,51.212025
2023-04-02T07:26:45.035Z,51.212116
2023-04-02T07:27:45.006Z,51.212147
2023-04-02T07:28:45.019Z,51.212093
2023-04-02T07:29:45.053Z,51.212067
2023-04-02T07:30:45.056Z,51.212128
2023-04-02T07:31:45.020Z,51.212170
2023-04-02T07:32:45.133Z,51.212166
2023-04-02T07:33:44.989Z,51.212143
2023-04-02T07:34:45.043Z,51.212166
2023-04-02T07:35:44.982Z,51.212166
2023-04-02T07:36:44.947Z,51.212223
2023-04-02T07:37:44.940Z,51.212311
2023-04-02T07:38:44.977Z,51.212143
2023-04-02T07:39:44.995Z,51.212154
2023-04-02T07:40:44.918Z,51.212109
2023-04-02T07:41:44.979Z,51.212078
2023-04-02T07:42:44.973Z,51.211983
2023-04-02T07:43:44.993Z,51.212055
2023-04-02T07:44:44.969Z,51.212105
2023-04-02T07:45:44.900Z,51.212128
2023-04-02T07:46:44.942Z,51.212051
2023-04-02T07:47:44.966Z,51.211979
2023-04-02T07:48:44.926Z,51.212070
2023-04-02T07:49:44.936Z,51.212170
2023-04-02T07:50:44.915Z,51.212147
2023-04-02T07:51:44.927Z,51.212109
2023-04-02T07:52:44.883Z,51.212086
2023-04-02T07:53:44.910Z,51.212063
2023-04-02T07:54:44.848Z,51.212124
2023-04-02T07:55:44.851Z,51.211819
2023-04-02T07:56:44.870Z,51.211861
2023-04-02T07:57:46.805Z,51.211864
2023-04-02T07:58:45.862Z,51.211967
2023-04-02T07:59:44.853Z,51.212009
2023-04-02T08:00:44.840Z,51.211979
2023-04-02T08:01:44.920Z,51.211926
2023-04-02T08:02:44.885Z,51.211929
2023-04-02T08:03:44.895Z,51.211933
2023-04-02T08:04:44.848Z,51.211990
2023-04-02T08:05:44.832Z,51.212013
2023-04-02T08:06:44.804Z,51.211895
2023-04-02T08:07:44.787Z,51.211773
2023-04-02T08:08:44.801Z,51.211929
2023-04-02T08:09:44.776Z,51.212078
2023-04-02T08:10:44.732Z,51.212147
2023-04-02T08:11:44.766Z,51.211807
2023-04-02T08:12:44.763Z,51.212048
2023-04-02T08:13:44.743Z,51.212086
2023-04-02T08:14:44.715Z,51.212154
2023-04-02T08:15:44.760Z,51.211967
2023-04-02T08:16:44.743Z,51.212009
2023-04-02T08:17:44.760Z,51.212021
2023-04-02T08:18:44.711Z,51.212158
2023-04-02T08:19:54.296Z,51.212139
2023-04-02T08:20:46.708Z,51.212063
2023-04-02T08:21:44.707Z,51.211994
2023-04-02T08:22:44.754Z,51.212036
2023-04-02T08:23:45.613Z,51.212261
2023-04-02T08:24:44.673Z,51.212223
2023-04-02T08:25:44.674Z,51.212029
2023-04-02T08:26:45.528Z,51.212048
2023-04-02T08:27:44.684Z,51.211937
2023-04-02T08:28:44.662Z,51.212055
2023-04-02T08:29:44.694Z,51.212090
2023-04-02T08:30:44.697Z,51.211998
2023-04-02T08:31:44.613Z,51.212063
2023-04-02T08:32:44.684Z,51.212124
2023-04-02T08:33:44.679Z,51.212116
2023-04-02T08:34:44.696Z,51.212151
2023-04-02T08:35:44.638Z,51.211956
2023-04-02T08:36:44.637Z,51.212097
2023-04-02T08:37:44.601Z,51.212082
2023-04-02T08:38:44.626Z,51.211998
2023-04-02T08:39:44.629Z,51.212112
2023-04-02T08:40:44.597Z,51.212151
2023-04-02T08:41:44.551Z,51.212158
2023-04-02T08:42:44.597Z,51.212227
2023-04-02T08:43:44.594Z,51.212231
2023-04-02T08:44:44.578Z,51.212128
2023-04-02T08:45:44.575Z,51.212139
2023-04-02T08:46:44.557Z,51.212357
2023-04-02T08:47:44.583Z,51.212242
2023-04-02T08:48:44.504Z,51.212189
2023-04-02T08:49:44.496Z,51.212337
2023-04-02T08:50:44.554Z,51.212257
2023-04-02T08:51:44.509Z,51.212158
2023-04-02T08:52:44.506Z,51.212048
2023-04-02T08:53:45.068Z,51.212048
2023-04-02T08:54:44.534Z,51.212116
2023-04-02T08:55:44.515Z,51.212162
2023-04-02T08:56:44.477Z,51.212425
2023-04-02T08:57:44.495Z,51.212212
2023-04-02T08:58:44.477Z,51.212170
2023-04-02T08:59:45.477Z,51.212147
2023-04-02T09:00:44.461Z,51.212097
2023-04-02T09:01:44.503Z,51.212181
2023-04-02T09:02:44.486Z,51.212227
2023-04-02T09:03:44.459Z,51.212135
2023-04-02T09:04:44.466Z,51.212189
2023-04-02T09:05:44.421Z,51.212204
2023-04-02T09:06:44.415Z,51.212265
2023-04-02T09:07:45.133Z,51.212288
2023-04-02T09:08:46.353Z,51.212135
2023-04-02T09:09:44.484Z,51.212070
2023-04-02T09:10:44.378Z,51.211926
2023-04-02T09:11:45.157Z,51.212074
2023-04-02T09:12:44.382Z,51.212177
2023-04-02T09:13:44.450Z,51.212166
2023-04-02T09:14:44.391Z,51.212135
2023-04-02T09:15:44.365Z,51.212269
2023-04-02T09:16:44.340Z,51.212296
2023-04-02T09:17:53.525Z,51.212315
2023-04-02T09:18:46.380Z,51.212284
2023-04-02T09:19:44.363Z,51.212261
2023-04-02T09:20:44.356Z,51.212227
2023-04-02T09:21:44.439Z,51.212227
2023-04-02T09:22:44.318Z,51.212196
2023-04-02T09:23:44.322Z,51.212166
2023-04-02T09:24:44.331Z,51.212139
2023-04-02T09:25:48.501Z,51.212082
2023-04-02T09:26:45.352Z,51.212170
2023-04-02T09:27:44.347Z,51.212204
2023-04-02T09:28:44.301Z,51.212147
2023-04-02T09:29:44.280Z,51.212143
2023-04-02T09:30:44.302Z,51.212170
2023-04-02T09:31:45.053Z,51.212215
2023-04-02T09:32:44.319Z,51.212189
2023-04-02T09:33:44.240Z,51.212234
2023-04-02T09:36:05.114Z,51.212082
2023-04-02T09:36:44.214Z,51.212120
2023-04-02T09:37:44.216Z,51.212185
2023-04-02T09:38:44.265Z,51.212135
2023-04-02T09:39:44.228Z,51.212212
2023-04-02T09:40:44.251Z,51.212154
2023-04-02T09:41:48.193Z,51.212170
2023-04-02T09:42:45.388Z,51.212135
2023-04-02T09:43:44.313Z,51.212143
2023-04-02T09:44:44.205Z,51.212166
2023-04-02T09:45:44.220Z,51.212215
2023-04-02T09:46:44.224Z,51.212116
2023-04-02T09:47:44.188Z,51.212162
2023-04-02T09:48:44.258Z,51.212139
2023-04-02T09:49:44.151Z,51.212200
2023-04-02T09:50:44.283Z,51.212200
2023-04-02T09:51:44.293Z,51.212273
2023-04-02T09:52:44.342Z,51.212189
2023-04-02T09:53:45.298Z,51.212082
2023-04-02T09:54:44.169Z,51.212025
2023-04-02T09:55:44.149Z,51.211914
2023-04-02T09:56:44.128Z,51.212257
2023-04-02T09:57:44.095Z,51.212132
2023-04-02T09:58:44.121Z,51.212135
2023-04-02T09:59:44.149Z,51.212143
2023-04-02T10:00:44.440Z,51.212086
2023-04-02T10:01:44.369Z,51.212128
2023-04-02T10:02:44.152Z,51.212147
2023-04-02T10:03:44.109Z,51.212200
2023-04-02T10:04:44.266Z,51.212196
2023-04-02T10:05:44.329Z,51.212147
2023-04-02T10:06:44.040Z,51.212234
2023-04-02T10:07:44.094Z,51.212234
2023-04-02T10:08:44.062Z,51.212215
2023-04-02T10:09:44.057Z,51.212189
2023-04-02T10:10:44.662Z,51.212116
2023-04-02T10:11:46.706Z,51.212132
2023-04-02T10:12:45.008Z,51.212204
2023-04-02T10:13:44.020Z,51.212086
2023-04-02T10:14:44.051Z,51.212112
2023-04-02T10:15:44.005Z,51.212158
2023-04-02T10:16:44.089Z,51.212154
2023-04-02T10:17:44.129Z,51.212040
2023-04-02T10:18:44.053Z,51.212162
2023-04-02T10:19:44.069Z,51.212166
2023-04-02T10:20:50.985Z,51.212158
2023-04-02T10:21:46.016Z,51.212132
2023-04-02T10:22:43.986Z,51.212154
2023-04-02T10:23:43.988Z,51.212090
2023-04-02T10:24:44.033Z,51.212109
2023-04-02T10:25:44.036Z,51.212063
2023-04-02T10:26:43.971Z,51.212059
2023-04-02T10:27:43.937Z,51.212090
2023-04-02T10:28:43.964Z,51.212051
2023-04-02T10:29:43.918Z,51.211998
2023-04-02T10:30:44.071Z,51.212078
2023-04-02T10:31:43.919Z,51.212090
2023-04-02T10:32:43.997Z,51.212112
2023-04-02T10:33:44.581Z,51.212109
2023-04-02T10:34:43.921Z,51.212135
2023-04-02T10:35:43.919Z,51.212135
2023-04-02T10:36:43.875Z,51.212074
2023-04-02T10:37:43.884Z,51.212036
2023-04-02T10:38:43.894Z,51.212002
2023-04-02T10:39:43.853Z,51.212013
2023-04-02T10:40:43.874Z,51.212048
2023-04-02T10:41:43.863Z,51.212029
2023-04-02T10:42:43.845Z,51.212105
2023-04-02T10:43:43.865Z,51.212200
2023-04-02T10:44:43.858Z,51.212170
2023-04-02T10:45:43.865Z,51.212318
2023-04-02T10:46:43.874Z,51.212292
2023-04-02T10:47:43.864Z,51.212265
2023-04-02T10:48:43.854Z,51.212208
2023-04-02T10:49:43.866Z,51.212265
2023-04-02T10:50:44.747Z,51.212242
2023-04-02T10:51:43.829Z,51.212112
2023-04-02T10:52:44.931Z,51.211819
2023-04-02T10:53:44.152Z,51.211945
2023-04-02T10:54:43.887Z,51.212048
2023-04-02T10:55:43.838Z,51.212269
2023-04-02T10:56:50.603Z,51.212189
2023-04-02T10:57:45.767Z,51.212246
2023-04-02T10:58:43.756Z,51.212284
2023-04-02T10:59:43.786Z,51.212215
2023-04-02T11:00:44.620Z,51.212101
2023-04-02T11:01:43.823Z,51.212219
2023-04-02T11:02:43.760Z,51.212204
2023-04-02T11:03:44.713Z,51.212215
2023-04-02T11:04:43.735Z,51.212261
2023-04-02T11:05:43.799Z,51.212132
2023-04-02T11:06:43.695Z,51.211929
2023-04-02T11:07:43.703Z,51.212067
2023-04-02T11:08:43.703Z,51.212193
2023-04-02T11:09:43.756Z,51.212082
2023-04-02T11:10:43.721Z,51.212074
2023-04-02T11:11:43.657Z,51.211983
2023-04-02T11:12:43.707Z,51.211967
2023-04-02T11:13:44.642Z,51.211861
2023-04-02T11:14:44.583Z,51.211975
2023-04-02T11:15:43.674Z,51.211914
2023-04-02T11:16:44.758Z,51.211979
2023-04-02T11:17:44.654Z,51.211964
2023-04-02T11:18:44.496Z,51.211918
2023-04-02T11:19:43.653Z,51.211964
2023-04-02T11:20:43.830Z,51.211887
2023-04-02T11:21:57.407Z,51.211910
2023-04-02T11:22:45.587Z,51.211922
2023-04-02T11:23:43.591Z,51.212029
2023-04-02T11:24:43.591Z,51.212154
2023-04-02T11:25:43.640Z,51.212204